Time;durP1;ratioP1;P1;durP2;ratioP2;P2;SDS_P1;SDS_P2;PMS_P1;PMS_P2;Temp;Humidity;BMP_temperature;BMP_pressure;BME280_temperature;BME280_humidity;BME280_pressure;Samples;Min_cycle;Max_cycle;Signal;HPM_P1;HPM_P2
2021/05/18 00:00:30;;;;;;;10.38;1.80;;;19.90;55.60;;;;;;5068311;28;20027;-51
2021/05/18 00:02:57;;;;;;;5.32;2.17;;;20.00;54.20;;;;;;5063423;28;20040;-51
2021/05/18 00:05:27;;;;;;;9.20;3.25;;;20.20;54.80;;;;;;5065692;28;20025;-54
2021/05/18 00:08:00;;;;;;;4.22;1.80;;;20.30;54.10;;;;;;5069346;28;20039;-52
2021/05/18 00:13:18;;;;;;;3.55;2.22;;;20.50;54.30;;;;;;5064776;28;20150;-48
2021/05/18 00:15:47;;;;;;;5.38;1.70;;;20.50;54.60;;;;;;5067935;28;20020;-54
2021/05/18 00:18:15;;;;;;;6.13;1.90;;;20.60;53.10;;;;;;5069276;28;20089;-53
2021/05/18 00:20:43;;;;;;;5.55;1.63;;;20.70;53.80;;;;;;5067538;28;20025;-52
2021/05/18 00:23:12;;;;;;;3.20;1.45;;;20.80;54.30;;;;;;5064581;28;20020;-52
2021/05/18 00:25:41;;;;;;;5.82;1.58;;;20.90;54.20;;;;;;5068423;28;20418;-50
2021/05/18 00:28:08;;;;;;;8.43;1.60;;;21.00;53.50;;;;;;5069198;28;20035;-52
2021/05/18 00:30:35;;;;;;;12.10;1.42;;;21.10;52.80;;;;;;5066747;28;20020;-59
2021/05/18 00:33:08;;;;;;;4.20;1.80;;;21.20;53.30;;;;;;5064684;28;20032;-61
2021/05/18 00:35:35;;;;;;;11.25;2.42;;;21.20;52.20;;;;;;5065329;28;20027;-63
2021/05/18 00:38:04;;;;;;;9.57;1.70;;;20.90;50.90;;;;;;5069282;28;20348;-64
2021/05/18 00:40:32;;;;;;;9.15;2.00;;;20.70;51.30;;;;;;5068382;28;20560;-60
2021/05/18 00:42:59;;;;;;;10.30;2.83;;;20.60;50.10;;;;;;5065820;28;20029;-60
2021/05/18 00:45:56;;;;;;;8.23;2.00;;;20.70;50.90;;;;;;5069115;28;20031;-57
2021/05/18 00:48:24;;;;;;;7.30;1.98;;;20.70;52.10;;;;;;5064743;28;20028;-59
2021/05/18 00:50:59;;;;;;;9.25;2.08;;;20.80;50.80;;;;;;5068626;28;20078;-59
2021/05/18 00:53:27;;;;;;;9.70;2.03;;;20.80;50.40;;;;;;5064334;28;20095;-54
2021/05/18 00:58:44;;;;;;;6.60;1.98;;;21.00;50.50;;;;;;5039374;28;20047;-61
2021/05/18 01:01:21;;;;;;;9.45;1.75;;;21.00;49.50;;;;;;5068075;28;20028;-59
2021/05/18 01:03:51;;;;;;;12.50;2.70;;;21.00;50.00;;;;;;5066100;28;20048;-54
2021/05/18 01:06:30;;;;;;;10.38;2.13;;;21.00;49.40;;;;;;5071471;28;20410;-57
2021/05/18 01:09:13;;;;;;;9.73;2.25;;;20.90;51.50;;;;;;5071157;28;20164;-58
2021/05/18 01:11:42;;;;;;;;;;;20.90;51.40;;;;;;5071090;28;20886;-58
2021/05/18 01:14:15;;;;;;;12.32;1.92;;;21.10;51.40;;;;;;5073401;28;20320;-54
2021/05/18 01:16:45;;;;;;;11.63;2.88;;;21.10;51.30;;;;;;5074491;28;20024;-61
2021/05/18 01:19:15;;;;;;;10.73;1.65;;;21.40;51.80;;;;;;5075160;28;20074;-54
2021/05/18 01:21:43;;;;;;;14.05;1.90;;;21.50;50.90;;;;;;5074935;28;20025;-51
2021/05/18 01:24:12;;;;;;;6.40;1.92;;;21.70;51.10;;;;;;5074968;28;20040;-58
2021/05/18 01:26:40;;;;;;;4.00;1.90;;;21.80;51.30;;;;;;5075324;28;20024;-59
2021/05/18 01:29:08;;;;;;;6.68;1.83;;;22.00;50.40;;;;;;5073344;28;20029;-58
2021/05/18 01:31:36;;;;;;;8.05;1.80;;;22.20;50.10;;;;;;5074691;28;20025;-54
2021/05/18 01:34:05;;;;;;;3.65;1.55;;;22.20;50.40;;;;;;5075500;28;20028;-57
2021/05/18 01:36:35;;;;;;;5.07;1.83;;;22.30;50.60;;;;;;5074697;28;20425;-57
2021/05/18 01:44:25;;;;;;;4.85;1.80;;;22.60;49.40;;;;;;5075565;28;20028;-55
2021/05/18 01:46:53;;;;;;;10.77;1.95;;;22.80;49.40;;;;;;5073260;28;20035;-58
2021/05/18 01:49:21;;;;;;;5.80;1.60;;;22.90;49.80;;;;;;5074536;28;20052;-58
2021/05/18 01:51:55;;;;;;;5.10;1.17;;;22.90;50.10;;;;;;5075321;28;20487;-63
2021/05/18 01:54:32;;;;;;;9.50;2.47;;;23.10;49.00;;;;;;5075217;28;20085;-54
2021/05/18 01:59:31;;;;;;;6.50;1.58;;;23.20;49.80;;;;;;5074644;28;20383;-59
2021/05/18 02:02:04;;;;;;;8.48;1.88;;;23.30;49.10;;;;;;5073957;28;20024;-56
2021/05/18 02:04:53;;;;;;;3.53;1.10;;;23.30;49.00;;;;;;5074712;28;20060;-58
2021/05/18 02:07:33;;;;;;;3.58;1.20;;;23.40;49.30;;;;;;5074526;28;20070;-61
2021/05/18 02:10:01;;;;;;;7.85;1.40;;;23.30;49.30;;;;;;5073709;28;20071;-54
2021/05/18 02:12:29;;;;;;;5.43;1.70;;;23.40;47.50;;;;;;5074624;28;20036;-58
2021/05/18 02:15:07;;;;;;;4.85;1.77;;;23.40;49.20;;;;;;5074097;28;20054;-59
2021/05/18 02:17:40;;;;;;;4.68;1.55;;;23.50;49.40;;;;;;5074070;28;20375;-59
2021/05/18 02:25:57;;;;;;;4.25;1.80;;;23.50;48.70;;;;;;5069270;28;20451;-55
2021/05/18 02:28:25;;;;;;;2.22;1.20;;;23.60;47.40;;;;;;5073711;28;20020;-61
2021/05/18 02:30:52;;;;;;;8.43;1.75;;;23.70;49.80;;;;;;5072661;28;20028;-58
2021/05/18 02:33:19;;;;;;;12.43;2.03;;;23.70;49.10;;;;;;5073809;28;20028;-56
2021/05/18 02:35:47;;;;;;;6.25;1.95;;;23.80;47.10;;;;;;5073669;28;20052;-55
2021/05/18 02:38:14;;;;;;;7.85;2.50;;;24.00;48.70;;;;;;5073744;28;20059;-56
2021/05/18 02:40:43;;;;;;;8.95;1.83;;;24.10;47.90;;;;;;5073649;28;20078;-57
2021/05/18 02:43:14;;;;;;;2.97;1.35;;;24.10;47.70;;;;;;5073996;28;20025;-60
2021/05/18 02:51:00;;;;;;;4.90;1.58;;;24.10;47.60;;;;;;5074098;28;20489;-54
2021/05/18 02:53:28;;;;;;;6.85;1.23;;;24.20;48.60;;;;;;5072409;28;20509;-60
2021/05/18 02:56:04;;;;;;;1.95;1.00;;;24.30;46.40;;;;;;5073565;28;20029;-56
2021/05/18 02:58:33;;;;;;;5.20;1.20;;;24.30;48.80;;;;;;5072391;28;20036;-57
2021/05/18 03:01:01;;;;;;;10.18;2.20;;;24.40;46.40;;;;;;5073108;28;20059;-58
2021/05/18 03:03:28;;;;;;;8.05;1.25;;;24.30;47.50;;;;;;5073212;28;20090;-60
2021/05/18 03:05:55;;;;;;;2.72;1.35;;;24.20;47.90;;;;;;5073430;28;20120;-57
2021/05/18 03:08:23;;;;;;;4.00;1.55;;;24.10;49.10;;;;;;5073295;28;20035;-57
2021/05/18 03:10:50;;;;;;;3.92;1.30;;;24.10;49.10;;;;;;5072186;28;20045;-57
2021/05/18 03:13:20;;;;;;;6.88;1.45;;;24.30;49.30;;;;;;5072852;28;20032;-55
2021/05/18 03:15:48;;;;;;;2.15;1.10;;;24.20;47.10;;;;;;5073316;28;20027;-52
2021/05/18 03:18:15;;;;;;;2.85;1.33;;;24.20;49.80;;;;;;5073218;28;20471;-55
2021/05/18 03:20:42;;;;;;;3.58;1.27;;;24.20;48.40;;;;;;5089494;28;20032;-56
2021/05/18 03:23:10;;;;;;;2.25;1.23;;;24.10;48.80;;;;;;5093502;28;20028;-56
2021/05/18 03:25:37;;;;;;;2.95;1.20;;;24.20;47.30;;;;;;5092743;28;20024;-57
2021/05/18 03:28:05;;;;;;;5.07;1.40;;;24.20;47.60;;;;;;5093172;28;20032;-57
2021/05/18 03:35:45;;;;;;;1.25;0.90;;;24.20;47.90;;;;;;5092778;28;20047;-62
2021/05/18 03:40:43;;;;;;;4.65;1.08;;;24.20;50.30;;;;;;5093258;28;20047;-57
2021/05/18 03:43:24;;;;;;;3.30;1.17;;;24.10;48.30;;;;;;5092556;28;20024;-55
2021/05/18 03:48:39;;;;;;;1.88;1.10;;;24.20;48.90;;;;;;5092664;28;20028;-57
2021/05/18 03:48:53;;;;;;;4.50;1.20;;;24.20;48.70;;;;;;5093538;28;20028;-58
2021/05/18 04:10:13;;;;;;;13.65;1.58;;;24.40;50.00;;;;;;5072117;28;20036;-59
2021/05/18 04:19:04;;;;;;;13.27;1.85;;;24.50;48.60;;;;;;5072063;28;20054;-57
2021/05/18 04:48:19;;;;;;;4.30;0.95;;;24.70;48.90;;;;;;5071620;28;20134;-58
2021/05/18 04:51:36;;;;;;;3.50;1.45;;;24.70;47.40;;;;;;5075699;28;20032;-57
2021/05/18 05:07:05;;;;;;;8.10;1.60;;;24.20;50.50;;;;;;5075368;28;20024;-53
2021/05/18 05:09:39;;;;;;;6.20;1.23;;;24.10;49.80;;;;;;5075286;28;20379;-55
2021/05/18 05:14:49;;;;;;;1.88;0.80;;;24.00;50.10;;;;;;5074159;28;20109;-52
2021/05/18 05:17:17;;;;;;;3.40;1.52;;;24.00;48.60;;;;;;5074876;28;20490;-53
2021/05/18 05:19:44;;;;;;;4.47;1.17;;;23.90;49.50;;;;;;5074453;28;20066;-55
2021/05/18 05:22:13;;;;;;;2.13;1.20;;;23.90;49.20;;;;;;5075817;28;20428;-56
2021/05/18 05:24:43;;;;;;;4.45;1.10;;;23.80;50.70;;;;;;5074843;28;20364;-55
2021/05/18 05:27:11;;;;;;;4.55;1.55;;;23.80;49.10;;;;;;5075884;28;20023;-49
2021/05/18 05:29:38;;;;;;;3.08;1.17;;;23.80;49.60;;;;;;5074884;28;20049;-59
2021/05/18 05:32:06;;;;;;;5.88;1.08;;;23.80;51.40;;;;;;5075125;28;20413;-57
2021/05/18 05:34:33;;;;;;;2.75;1.00;;;23.70;51.70;;;;;;5075490;28;20327;-51
2021/05/18 05:37:01;;;;;;;11.15;1.70;;;23.70;52.00;;;;;;5072914;28;20021;-58
2021/05/18 05:39:29;;;;;;;5.22;1.40;;;23.50;52.10;;;;;;5070134;28;20043;-59
2021/05/18 05:41:56;;;;;;;2.60;0.95;;;23.40;50.00;;;;;;5072486;28;20118;-63
2021/05/18 05:44:25;;;;;;;5.88;1.30;;;23.30;52.40;;;;;;5073959;28;20076;-61
2021/05/18 05:46:53;;;;;;;6.15;1.35;;;23.20;52.30;;;;;;5069276;28;20421;-59
2021/05/18 05:49:20;;;;;;;10.93;1.80;;;23.10;52.10;;;;;;5071415;28;20021;-57
2021/05/18 05:51:48;;;;;;;10.07;2.05;;;22.90;51.20;;;;;;5071742;28;20024;-52
2021/05/18 05:54:15;;;;;;;6.47;1.70;;;22.80;52.70;;;;;;5072044;28;20021;-61
2021/05/18 05:56:43;;;;;;;2.47;1.27;;;22.60;51.40;;;;;;5066693;28;20041;-59
2021/05/18 05:59:10;;;;;;;10.80;1.60;;;22.30;52.70;;;;;;5069747;28;20511;-60
2021/05/18 06:01:38;;;;;;;13.20;11.07;;;22.20;51.90;;;;;;5071189;28;20036;-60
2021/05/18 06:04:06;;;;;;;6.13;1.60;;;21.90;53.80;;;;;;5071204;28;20020;-59
2021/05/18 06:06:33;;;;;;;5.22;1.55;;;21.70;54.30;;;;;;5064527;28;20039;-60
2021/05/18 06:09:01;;;;;;;9.10;1.77;;;21.50;55.10;;;;;;5071701;28;20036;-60
2021/05/18 06:49:59;;;;;;;3.08;1.45;;;20.00;60.60;;;;;;5067227;28;20020;-54
2021/05/18 06:52:26;;;;;;;3.33;1.63;;;19.90;59.70;;;;;;5070166;28;20024;-54
2021/05/18 06:54:54;;;;;;;2.08;1.17;;;19.90;60.50;;;;;;5071088;28;20021;-55
2021/05/18 06:57:21;;;;;;;3.88;1.33;;;19.90;61.00;;;;;;5066667;28;20387;-54
2021/05/18 07:02:34;;;;;;;2.13;1.08;;;19.80;59.60;;;;;;5067530;28;20031;-54
2021/05/18 07:05:04;;;;;;;1.75;1.05;;;19.70;61.00;;;;;;5070673;28;20036;-52
2021/05/18 07:07:34;;;;;;;2.67;1.10;;;19.70;60.70;;;;;;5066337;28;20039;-62
2021/05/18 07:10:01;;;;;;;2.33;1.13;;;19.70;61.10;;;;;;5070021;28;20185;-60
2021/05/18 07:12:29;;;;;;;2.47;0.95;;;19.60;60.60;;;;;;5069704;28;20119;-57
2021/05/18 07:14:59;;;;;;;2.15;1.00;;;19.60;61.20;;;;;;5069367;28;20392;-63
2021/05/18 07:17:26;;;;;;;2.45;0.82;;;19.50;60.80;;;;;;5066109;28;20751;-53
2021/05/18 07:19:54;;;;;;;2.47;1.20;;;19.50;61.30;;;;;;5070326;28;20047;-56
2021/05/18 07:22:21;;;;;;;6.68;1.60;;;19.50;61.20;;;;;;5069082;28;20060;-62
2021/05/18 07:24:49;;;;;;;3.40;1.20;;;19.50;61.20;;;;;;5067770;28;20032;-58
2021/05/18 07:27:16;;;;;;;3.60;1.40;;;19.40;61.60;;;;;;5066496;28;20024;-54
2021/05/18 07:29:44;;;;;;;3.35;1.83;;;19.40;61.50;;;;;;5069643;28;20024;-56
2021/05/18 07:32:11;;;;;;;3.35;1.50;;;19.30;61.40;;;;;;5070133;28;20025;-58
2021/05/18 07:34:39;;;;;;;1.33;1.10;;;19.30;61.60;;;;;;5070262;28;20119;-59
2021/05/18 07:37:07;;;;;;;4.10;1.52;;;19.30;61.70;;;;;;5066112;28;20029;-63
2021/05/18 07:39:34;;;;;;;2.17;1.23;;;19.30;61.80;;;;;;5068954;28;20028;-58
2021/05/18 07:42:02;;;;;;;5.38;1.30;;;19.20;62.00;;;;;;5069971;28;20121;-55
2021/05/18 07:44:29;;;;;;;2.42;1.05;;;19.20;61.70;;;;;;5069513;28;20127;-55
2021/05/18 07:46:57;;;;;;;2.38;1.45;;;19.20;61.60;;;;;;5066054;28;20051;-58
2021/05/18 08:05:20;;;;;;;1.45;1.05;;;19.00;62.70;;;;;;5068071;28;20035;-62
2021/05/18 08:07:48;;;;;;;1.73;1.10;;;19.00;62.60;;;;;;5065657;28;20025;-61
2021/05/18 08:10:21;;;;;;;2.50;1.02;;;19.00;62.30;;;;;;5069265;28;20049;-52
2021/05/18 08:12:48;;;;;;;3.55;1.10;;;19.00;62.60;;;;;;5068524;28;20044;-61
2021/05/18 08:48:36;;;;;;;5.10;1.30;;;18.70;63.00;;;;;;5063750;28;20560;-53
2021/05/18 10:36:40;;;;;;;2.55;1.38;;;18.30;66.90;;;;;;5069115;28;20198;-53
2021/05/18 10:39:25;;;;;;;3.13;1.40;;;18.30;67.20;;;;;;5069388;28;20035;-57
2021/05/18 10:41:54;;;;;;;1.83;1.38;;;18.30;67.20;;;;;;5071737;28;20078;-58
2021/05/18 10:44:22;;;;;;;4.07;1.45;;;18.30;67.50;;;;;;5071177;28;20328;-57
2021/05/18 10:47:01;;;;;;;5.43;1.42;;;18.20;67.30;;;;;;5067519;28;20032;-54
2021/05/18 10:49:37;;;;;;;8.60;1.92;;;18.20;67.40;;;;;;5071525;28;20060;-55
2021/05/18 10:52:09;;;;;;;11.48;1.60;;;18.20;68.00;;;;;;5071001;28;20025;-59
2021/05/18 10:54:42;;;;;;;4.03;1.58;;;18.20;68.10;;;;;;5066944;28;20111;-59
2021/05/18 10:57:16;;;;;;;3.20;1.50;;;18.20;68.40;;;;;;5066031;28;20033;-54
2021/05/18 10:59:56;;;;;;;3.05;1.60;;;18.10;68.10;;;;;;5070810;28;20037;-58
2021/05/18 11:02:34;;;;;;;4.05;1.88;;;18.10;68.30;;;;;;5067643;28;20027;-57
2021/05/18 11:05:11;;;;;;;6.50;1.27;;;18.10;68.20;;;;;;5070093;28;20039;-53
2021/05/18 11:07:47;;;;;;;2.17;1.40;;;18.10;68.30;;;;;;5067158;28;20063;-55
2021/05/18 11:10:19;;;;;;;3.92;1.60;;;18.10;68.30;;;;;;5069333;28;20076;-58
2021/05/18 11:12:54;;;;;;;2.83;1.90;;;18.10;68.20;;;;;;5070048;28;20031;-56
2021/05/18 11:15:23;;;;;;;3.05;1.77;;;18.10;68.60;;;;;;5069318;28;20036;-56
2021/05/18 11:17:56;;;;;;;3.50;1.83;;;18.00;68.70;;;;;;5068169;28;20021;-57
2021/05/18 11:20:24;;;;;;;;;;;18.00;69.20;;;;;;5069654;28;20119;-61
2021/05/18 11:26:05;;;;;;;4.43;1.53;;;18.00;68.30;;;;;;5070887;28;20066;-58
2021/05/18 11:28:34;;;;;;;5.22;2.28;;;18.00;68.40;;;;;;5065991;28;20267;-59
2021/05/18 11:31:04;;;;;;;3.65;1.77;;;18.00;68.20;;;;;;5066768;28;20372;-61
2021/05/18 11:33:34;;;;;;;3.50;1.88;;;18.00;68.00;;;;;;5068617;28;20028;-61
2021/05/18 11:36:09;;;;;;;4.70;1.83;;;18.00;68.10;;;;;;5069600;28;20029;-61
2021/05/18 11:38:41;;;;;;;2.63;1.42;;;18.00;68.00;;;;;;5067097;28;20020;-61
2021/05/18 11:41:09;;;;;;;3.53;1.70;;;18.00;68.00;;;;;;5066673;28;20044;-63
2021/05/18 11:43:37;;;;;;;3.38;1.73;;;18.00;68.00;;;;;;5069750;28;20119;-62
2021/05/18 11:46:14;;;;;;;7.03;2.20;;;18.00;67.90;;;;;;5070366;28;20032;-61
2021/05/18 11:49:03;;;;;;;4.18;1.30;;;18.00;67.80;;;;;;5067771;28;20115;-63
2021/05/18 11:51:52;;;;;;;2.67;1.60;;;18.00;67.70;;;;;;5069458;28;20082;-60
2021/05/18 11:54:23;;;;;;;4.57;1.73;;;18.00;67.70;;;;;;5069056;28;20382;-62
2021/05/18 11:56:53;;;;;;;3.75;1.70;;;17.90;67.70;;;;;;5066078;28;20116;-60
2021/05/18 11:59:22;;;;;;;6.32;2.25;;;17.90;67.70;;;;;;5069635;28;20032;-59
2021/05/18 12:01:58;;;;;;;3.70;1.70;;;17.90;67.80;;;;;;5069123;28;20027;-58
2021/05/18 12:04:30;;;;;;;4.70;1.60;;;17.90;67.90;;;;;;5070095;28;20442;-61
2021/05/18 12:07:04;;;;;;;2.38;1.60;;;17.90;67.70;;;;;;5066523;28;20102;-60
2021/05/18 12:09:33;;;;;;;4.65;1.60;;;17.80;67.70;;;;;;5069495;28;20036;-56
2021/05/18 12:12:02;;;;;;;2.95;1.75;;;17.90;67.70;;;;;;5069365;28;20125;-55
2021/05/18 12:14:30;;;;;;;2.95;1.75;;;17.80;67.70;;;;;;5069746;28;20543;-55
2021/05/18 12:16:59;;;;;;;3.35;1.88;;;17.90;67.70;;;;;;5065622;28;20033;-58
2021/05/18 12:19:26;;;;;;;3.65;1.80;;;17.90;67.70;;;;;;5067352;28;20414;-50
2021/05/18 12:21:56;;;;;;;2.15;1.70;;;17.80;67.60;;;;;;5069799;28;20106;-54
2021/05/18 12:24:28;;;;;;;5.97;2.28;;;17.80;67.60;;;;;;5068673;28;20033;-49
2021/05/18 12:27:03;;;;;;;3.35;1.48;;;17.80;67.60;;;;;;5062365;28;20489;-57
2021/05/18 12:29:38;;;;;;;2.33;1.67;;;17.80;67.50;;;;;;5069766;28;20115;-54
2021/05/18 12:32:23;;;;;;;2.63;1.73;;;17.80;67.60;;;;;;5069192;28;20398;-54
2021/05/18 12:34:53;;;;;;;3.65;1.75;;;17.80;67.60;;;;;;5069902;28;20021;-58
2021/05/18 12:37:47;;;;;;;5.07;2.35;;;17.80;67.50;;;;;;5065229;28;20021;-50
2021/05/18 12:40:27;;;;;;;5.43;1.90;;;17.80;67.70;;;;;;5068457;28;20035;-55
2021/05/18 12:42:55;;;;;;;2.25;1.58;;;17.70;67.70;;;;;;5065844;28;21175;-49
2021/05/18 12:45:26;;;;;;;3.88;1.88;;;17.70;67.70;;;;;;5065203;28;20382;-54
2021/05/18 12:48:00;;;;;;;2.45;1.52;;;17.70;67.60;;;;;;5063840;28;20107;-53
2021/05/18 12:50:39;;;;;;;5.78;1.83;;;17.70;67.70;;;;;;5066263;28;20029;-58
2021/05/18 12:53:21;;;;;;;5.18;1.75;;;17.70;67.70;;;;;;5065629;28;20074;-57
2021/05/18 12:55:49;;;;;;;4.50;1.80;;;17.60;67.70;;;;;;5068534;28;20025;-56
2021/05/18 12:58:32;;;;;;;2.65;1.30;;;17.60;67.90;;;;;;5065900;28;20032;-56
2021/05/18 13:01:10;;;;;;;2.58;1.42;;;17.60;67.90;;;;;;5068363;28;20080;-53
2021/05/18 13:03:39;;;;;;;2.78;1.52;;;17.50;68.00;;;;;;5066456;28;20055;-54
2021/05/18 13:06:07;;;;;;;2.33;1.60;;;17.50;68.20;;;;;;5069208;28;20051;-55
2021/05/18 13:08:39;;;;;;;4.90;1.50;;;17.50;68.30;;;;;;5065863;28;20055;-58
2021/05/18 13:13:48;;;;;;;2.42;1.48;;;17.40;68.40;;;;;;5072682;28;20530;-55
2021/05/18 13:16:21;;;;;;;3.08;1.73;;;17.40;68.40;;;;;;5072493;28;20036;-58
2021/05/18 13:19:01;;;;;;;3.80;1.58;;;17.40;68.40;;;;;;5071454;28;20028;-64
2021/05/18 13:21:50;;;;;;;2.97;1.60;;;17.40;68.40;;;;;;5072499;28;20033;-62
2021/05/18 13:27:03;;;;;;;4.90;1.90;;;17.40;68.40;;;;;;5069384;28;20032;-57
2021/05/18 13:29:30;;;;;;;4.97;1.60;;;17.40;68.40;;;;;;5072539;28;20104;-61
2021/05/18 13:31:58;;;;;;;6.40;1.75;;;17.40;68.40;;;;;;5073256;28;20082;-61
2021/05/18 13:34:28;;;;;;;2.95;1.83;;;17.40;68.40;;;;;;5072969;28;20025;-60
2021/05/18 13:36:55;;;;;;;5.38;1.77;;;17.40;68.50;;;;;;5069597;28;20112;-59
2021/05/18 13:39:25;;;;;;;5.45;2.15;;;17.40;68.50;;;;;;5073439;28;20104;-56
2021/05/18 13:41:53;;;;;;;4.80;1.40;;;17.30;68.50;;;;;;5075455;28;20094;-59
2021/05/18 13:44:20;;;;;;;4.85;1.80;;;17.30;68.60;;;;;;5075206;28;20055;-57
2021/05/18 13:46:48;;;;;;;4.60;1.60;;;17.30;68.60;;;;;;5071064;28;20070;-59
2021/05/18 13:49:15;;;;;;;3.45;1.73;;;17.20;68.60;;;;;;5072559;28;20034;-56
2021/05/18 13:51:44;;;;;;;3.97;1.80;;;17.20;68.70;;;;;;5072440;28;20424;-58
2021/05/18 13:54:11;;;;;;;8.90;2.90;;;17.20;68.70;;;;;;5067004;28;20051;-59
2021/05/18 13:56:39;;;;;;;2.30;1.65;;;17.20;68.80;;;;;;5072603;28;20443;-58
2021/05/18 13:59:06;;;;;;;2.25;1.45;;;17.10;69.40;;;;;;5071576;28;20041;-59
2021/05/18 14:01:33;;;;;;;2.83;1.60;;;17.00;68.80;;;;;;5072317;28;20540;-59
2021/05/18 14:04:00;;;;;;;3.67;1.77;;;17.10;69.00;;;;;;5071949;28;20023;-59
2021/05/18 14:06:30;;;;;;;7.30;2.30;;;17.00;69.20;;;;;;5072123;28;20485;-56
2021/05/18 14:08:57;;;;;;;2.78;2.00;;;17.00;69.30;;;;;;5072051;28;20094;-58
2021/05/18 14:11:25;;;;;;;5.75;1.95;;;17.00;69.60;;;;;;5071824;28;20044;-56
2021/05/18 14:13:55;;;;;;;2.33;1.50;;;16.90;69.70;;;;;;5069296;28;20025;-59
2021/05/18 14:16:25;;;;;;;6.57;2.17;;;17.00;69.80;;;;;;5071617;28;20051;-57
2021/05/18 14:18:57;;;;;;;4.00;1.90;;;17.00;69.90;;;;;;5072095;28;20059;-55
2021/05/18 14:21:27;;;;;;;6.05;3.55;;;16.90;69.90;;;;;;5070747;28;20471;-57
2021/05/18 14:24:12;;;;;;;4.88;2.03;;;16.90;70.10;;;;;;5068304;28;20111;-58
2021/05/18 14:26:39;;;;;;;4.25;1.60;;;16.90;70.10;;;;;;5072020;28;20497;-58
2021/05/18 14:29:07;;;;;;;2.60;1.95;;;16.90;70.20;;;;;;5071193;28;20035;-58
2021/05/18 14:31:34;;;;;;;4.63;2.25;;;16.90;70.20;;;;;;5071997;28;20032;-57
2021/05/18 14:34:02;;;;;;;6.85;1.88;;;16.90;70.30;;;;;;5068918;28;20133;-57
2021/05/18 14:36:29;;;;;;;3.67;1.63;;;16.80;70.20;;;;;;5071848;28;20025;-58
2021/05/18 14:38:59;;;;;;;4.35;2.42;;;16.80;70.30;;;;;;5071572;28;20044;-60
2021/05/18 14:44:16;;;;;;;3.35;1.77;;;16.80;70.40;;;;;;5068149;28;20109;-58
2021/05/18 14:57:17;;;;;;;2.97;1.85;;;16.70;70.50;;;;;;5070973;28;20502;-58
2021/05/18 14:59:44;;;;;;;7.57;2.25;;;16.60;70.60;;;;;;5071660;28;20047;-58
2021/05/18 15:02:12;;;;;;;4.40;2.10;;;16.60;70.60;;;;;;5071447;28;20028;-59
2021/05/18 15:04:39;;;;;;;5.85;2.10;;;16.60;70.70;;;;;;5067773;28;20067;-59
2021/05/18 15:07:07;;;;;;;3.42;2.13;;;16.60;70.70;;;;;;5070799;28;20027;-58
2021/05/18 15:09:39;;;;;;;3.88;2.13;;;16.60;70.70;;;;;;5071399;28;20066;-57
2021/05/18 15:12:08;;;;;;;3.60;2.20;;;16.50;70.70;;;;;;5070286;28;20127;-58
2021/05/18 15:14:36;;;;;;;3.40;2.08;;;16.50;70.80;;;;;;5067901;28;20021;-57
2021/05/18 15:17:04;;;;;;;4.00;2.25;;;16.50;70.80;;;;;;5071195;28;20029;-59
2021/05/18 15:19:31;;;;;;;2.72;1.67;;;16.50;70.90;;;;;;5070893;28;20046;-59
2021/05/18 15:21:59;;;;;;;6.20;2.08;;;16.50;70.90;;;;;;5070563;28;20112;-58
2021/05/18 15:24:28;;;;;;;6.38;2.15;;;16.40;70.80;;;;;;5064979;28;20483;-58
2021/05/18 15:26:56;;;;;;;5.22;2.00;;;16.40;70.90;;;;;;5070491;28;20058;-61
2021/05/18 15:29:24;;;;;;;2.78;1.83;;;16.40;70.90;;;;;;5070077;28;20111;-59
2021/05/18 15:31:52;;;;;;;3.92;2.10;;;16.40;70.90;;;;;;5070688;28;20458;-57
2021/05/18 15:34:19;;;;;;;4.53;2.17;;;16.40;70.90;;;;;;5067576;28;20497;-57
2021/05/18 15:36:47;;;;;;;4.53;2.50;;;16.30;70.90;;;;;;5070397;28;20024;-59
2021/05/18 15:39:15;;;;;;;3.53;2.10;;;16.30;70.90;;;;;;5070603;28;20093;-59
2021/05/18 15:41:42;;;;;;;4.15;2.28;;;16.40;71.00;;;;;;5073940;28;20020;-59
2021/05/18 15:44:09;;;;;;;5.63;1.98;;;16.30;70.90;;;;;;5068445;28;20055;-58
2021/05/18 15:46:37;;;;;;;3.85;2.40;;;16.30;70.90;;;;;;5069524;28;20080;-58
2021/05/18 15:49:05;;;;;;;4.20;2.33;;;16.30;70.90;;;;;;5070474;28;20123;-58
2021/05/18 15:51:32;;;;;;;6.18;2.22;;;16.30;70.90;;;;;;5070568;28;20025;-58
2021/05/18 15:53:59;;;;;;;4.55;2.38;;;16.30;71.00;;;;;;5070314;28;20035;-59
2021/05/18 15:56:27;;;;;;;4.75;1.98;;;16.30;71.10;;;;;;5066939;28;20401;-58
2021/05/18 15:58:54;;;;;;;6.07;2.40;;;16.30;71.00;;;;;;5069705;28;20036;-59
2021/05/18 16:01:21;;;;;;;5.60;2.25;;;16.20;71.10;;;;;;5070265;28;20092;-58
2021/05/18 16:03:49;;;;;;;4.13;2.25;;;16.20;71.00;;;;;;5070531;28;20029;-59
2021/05/18 16:06:16;;;;;;;4.57;2.42;;;16.20;71.10;;;;;;5067300;28;20024;-59
2021/05/18 16:11:11;;;;;;;5.05;2.53;;;16.20;71.10;;;;;;5069799;28;20182;-58
2021/05/18 16:13:40;;;;;;;5.53;2.75;;;16.20;71.10;;;;;;5070152;28;20225;-59
2021/05/18 16:16:11;;;;;;;7.68;2.80;;;16.20;71.10;;;;;;5066182;28;20675;-58
2021/05/18 16:18:39;;;;;;;6.75;2.38;;;16.20;71.20;;;;;;5070354;28;20036;-58
2021/05/18 16:21:08;;;;;;;5.50;2.10;;;16.10;71.10;;;;;;5069899;28;20032;-58
2021/05/18 16:23:38;;;;;;;5.85;2.78;;;16.10;71.10;;;;;;5069455;28;20028;-58
2021/05/18 16:26:07;;;;;;;4.22;2.63;;;16.10;71.20;;;;;;5066418;28;20029;-59
2021/05/18 16:28:35;;;;;;;5.25;2.47;;;16.10;71.20;;;;;;5069810;28;20085;-59
2021/05/18 16:31:03;;;;;;;4.80;2.33;;;16.10;71.80;;;;;;5069307;28;20495;-58
2021/05/18 16:33:31;;;;;;;4.30;2.35;;;16.10;71.10;;;;;;5069984;28;20071;-59
2021/05/18 16:35:58;;;;;;;3.13;2.47;;;16.00;71.20;;;;;;5066604;28;20382;-59
2021/05/18 16:38:25;;;;;;;3.95;2.47;;;16.00;71.10;;;;;;5070133;28;20081;-57
2021/05/18 16:40:54;;;;;;;5.72;2.85;;;16.00;71.20;;;;;;5068836;28;20032;-58
2021/05/18 16:43:26;;;;;;;5.07;2.60;;;16.00;71.30;;;;;;5069268;28;20110;-59
2021/05/18 16:45:55;;;;;;;3.53;2.17;;;16.00;71.30;;;;;;5066481;28;20074;-59
2021/05/18 16:48:29;;;;;;;6.55;2.55;;;16.00;71.30;;;;;;5069042;28;20033;-58
2021/05/18 16:51:03;;;;;;;5.40;3.00;;;16.00;71.30;;;;;;5069764;28;20040;-58
2021/05/18 16:53:33;;;;;;;5.25;2.30;;;16.00;71.20;;;;;;5069560;28;20058;-58
2021/05/18 16:56:03;;;;;;;7.78;2.65;;;15.90;71.20;;;;;;5065037;28;20031;-61
2021/05/18 16:58:31;;;;;;;4.05;2.85;;;15.90;71.20;;;;;;5069928;28;20562;-58
2021/05/18 17:00:59;;;;;;;5.53;3.20;;;15.90;71.20;;;;;;5069841;28;20111;-58
2021/05/18 17:03:27;;;;;;;5.57;3.03;;;15.90;71.90;;;;;;5069990;28;20028;-59
2021/05/18 17:05:54;;;;;;;3.53;2.55;;;15.90;71.90;;;;;;5072104;28;20025;-57
2021/05/18 17:08:22;;;;;;;5.65;2.78;;;15.90;71.40;;;;;;5072311;28;20020;-59
2021/05/18 17:10:49;;;;;;;4.15;2.60;;;15.90;71.30;;;;;;5071866;28;20056;-59
2021/05/18 17:13:16;;;;;;;4.57;2.72;;;15.80;71.30;;;;;;5072002;28;20067;-57
2021/05/18 17:15:44;;;;;;;6.07;3.28;;;15.90;71.30;;;;;;5072055;28;20105;-55
2021/05/18 17:18:11;;;;;;;10.02;3.03;;;15.80;71.40;;;;;;5072279;28;20029;-58
2021/05/18 17:20:39;;;;;;;4.18;2.60;;;15.80;71.30;;;;;;5072030;28;20064;-57
2021/05/18 17:23:08;;;;;;;5.43;2.67;;;15.80;71.30;;;;;;5071870;28;20495;-57
2021/05/18 17:25:35;;;;;;;6.30;2.97;;;15.80;71.40;;;;;;5072073;28;20037;-56
2021/05/18 17:28:02;;;;;;;5.88;3.08;;;15.80;71.40;;;;;;5072119;28;20035;-58
2021/05/18 17:30:30;;;;;;;4.88;3.10;;;15.80;71.40;;;;;;5071173;28;20116;-57
2021/05/18 17:32:57;;;;;;;5.95;3.00;;;15.80;71.30;;;;;;5071753;28;20025;-60
2021/05/18 17:35:25;;;;;;;7.05;3.17;;;15.70;71.30;;;;;;5071881;28;20028;-55
2021/05/18 17:37:53;;;;;;;4.55;2.83;;;15.70;71.40;;;;;;5072051;28;20108;-54
2021/05/18 17:40:21;;;;;;;4.22;2.58;;;15.70;71.40;;;;;;5071856;28;20036;-57
2021/05/18 17:42:49;;;;;;;4.60;3.28;;;15.80;71.40;;;;;;5072079;28;20353;-56
2021/05/18 17:45:16;;;;;;;5.63;3.25;;;15.70;71.30;;;;;;5071665;28;20021;-59
2021/05/18 17:47:45;;;;;;;6.70;3.05;;;15.70;71.40;;;;;;5071919;28;20390;-56
2021/05/18 17:50:15;;;;;;;6.38;3.05;;;15.70;71.50;;;;;;5071833;28;20036;-57
2021/05/18 17:52:43;;;;;;;5.47;3.08;;;15.70;71.50;;;;;;5072271;28;20155;-58
2021/05/18 17:55:13;;;;;;;4.50;2.75;;;15.60;71.60;;;;;;5073190;28;20029;-56
2021/05/18 17:57:41;;;;;;;4.60;2.83;;;15.70;71.60;;;;;;5074451;28;20478;-56
2021/05/18 18:00:10;;;;;;;5.95;3.40;;;15.60;71.50;;;;;;5076224;28;20044;-58
2021/05/18 18:02:37;;;;;;;5.97;3.10;;;15.70;71.60;;;;;;5075520;28;20573;-56
2021/05/18 18:05:05;;;;;;;5.65;3.50;;;15.60;71.50;;;;;;5075304;28;20032;-58
2021/05/18 18:07:33;;;;;;;4.45;3.10;;;15.60;71.60;;;;;;5075296;28;20021;-58
2021/05/18 18:10:02;;;;;;;6.88;2.83;;;15.60;71.60;;;;;;5074968;28;20400;-57
2021/05/18 18:12:29;;;;;;;8.05;3.55;;;15.60;71.80;;;;;;5075183;28;20470;-58
2021/05/18 18:14:57;;;;;;;4.75;2.92;;;15.60;71.80;;;;;;5075039;28;20035;-59
2021/05/18 18:17:25;;;;;;;6.30;3.83;;;15.50;71.70;;;;;;5074904;28;20037;-55
2021/05/18 18:19:56;;;;;;;5.50;3.38;;;15.50;71.80;;;;;;5074814;28;20037;-58